Time;durP1;ratioP1;P1;durP2;ratioP2;P2;SDS_P1;SDS_P2;PMS_P1;PMS_P2;Temp;Humidity;BMP_temperature;BMP_pressure;BME280_temperature;BME280_humidity;BME280_pressure;Samples;Min_cycle;Max_cycle;Signal;HPM_P1;HPM_P2
2022/11/18 00:01:30;;;;;;;0.10;0.10;;;;;;;7.11;100.00;99471.38;5021370;28;20071;-73
2022/11/18 00:03:55;;;;;;;0.10;0.10;;;;;;;6.99;100.00;99443.09;5020664;28;20033;-72
2022/11/18 00:06:23;;;;;;;0.10;0.10;;;;;;;6.83;100.00;99451.53;5025166;28;20460;-73
2022/11/18 00:08:48;;;;;;;0.10;0.10;;;;;;;7.12;100.00;99466.91;5000148;28;20037;-72
2022/11/18 00:14:18;;;;;;;0.10;0.10;;;;;;;6.84;100.00;99471.91;5022813;28;20052;-72
2022/11/18 00:16:45;;;;;;;0.10;0.10;;;;;;;7.16;100.00;99466.50;5007935;28;20186;-73
2022/11/18 00:19:10;;;;;;;0.10;0.10;;;;;;;6.85;100.00;99453.09;5005214;28;20025;-73
2022/11/18 00:21:36;;;;;;;0.10;0.10;;;;;;;6.64;100.00;99457.56;5023834;28;20515;-73
2022/11/18 00:24:01;;;;;;;0.10;0.10;;;;;;;6.90;100.00;99466.91;5026365;28;20530;-73
2022/11/18 00:26:26;;;;;;;0.10;0.10;;;;;;;6.88;100.00;99490.19;5009630;28;20033;-73
2022/11/18 00:28:51;;;;;;;0.10;0.10;;;;;;;7.06;100.00;99476.25;5020011;28;20037;-72
2022/11/18 00:31:17;;;;;;;0.10;0.10;;;;;;;6.95;100.00;99492.34;5023427;28;20038;-72
2022/11/18 00:33:42;;;;;;;0.10;0.10;;;;;;;6.68;100.00;99486.53;5006351;28;20601;-73
2022/11/18 00:36:10;;;;;;;0.10;0.10;;;;;;;6.59;100.00;99479.31;5023203;28;20038;-73
2022/11/18 00:38:35;;;;;;;0.10;0.10;;;;;;;6.93;100.00;99508.47;5016752;28;20017;-72
2022/11/18 00:41:02;;;;;;;0.10;0.10;;;;;;;6.84;100.00;99509.25;5023774;28;20515;-73
2022/11/18 00:43:28;;;;;;;0.10;0.10;;;;;;;6.75;100.00;99500.22;5006056;28;20053;-72
2022/11/18 00:45:54;;;;;;;0.10;0.10;;;;;;;6.69;100.00;99504.22;5007654;28;20029;-72
2022/11/18 00:48:21;;;;;;;0.10;0.10;;;;;;;6.70;100.00;99508.56;5019664;28;20466;-73
2022/11/18 00:50:48;;;;;;;0.10;0.10;;;;;;;6.73;100.00;99487.00;5017399;28;20425;-72
2022/11/18 00:53:13;;;;;;;0.10;0.10;;;;;;;6.79;100.00;99503.47;5028893;28;20075;-72
2022/11/18 00:55:38;;;;;;;0.10;0.10;;;;;;;6.87;100.00;99520.53;5022040;28;20041;-72
2022/11/18 00:58:04;;;;;;;0.10;0.10;;;;;;;6.82;100.00;99512.03;5004306;28;20288;-72
2022/11/18 01:00:29;;;;;;;0.10;0.10;;;;;;;6.94;100.00;99520.84;5022476;28;20029;-72
2022/11/18 01:02:54;;;;;;;0.15;0.15;;;;;;;6.96;100.00;99512.72;4998381;28;20399;-73
2022/11/18 01:05:20;;;;;;;0.10;0.10;;;;;;;7.10;100.00;99522.25;5014016;28;20055;-72
2022/11/18 01:07:45;;;;;;;0.10;0.10;;;;;;;6.95;100.00;99522.53;5024413;28;20079;-72
2022/11/18 01:10:10;;;;;;;0.10;0.10;;;;;;;6.82;100.00;99513.88;5017659;28;20026;-72
2022/11/18 01:15:19;;;;;;;0.10;0.10;;;;;;;7.14;100.00;99529.00;5019571;28;20133;-72
2022/11/18 01:17:45;;;;;;;0.10;0.10;;;;;;;7.07;100.00;99527.84;5022746;28;20478;-72
2022/11/18 01:20:10;;;;;;;0.10;0.10;;;;;;;7.08;100.00;99530.34;5022102;28;20588;-73
2022/11/18 01:22:35;;;;;;;0.10;0.10;;;;;;;7.26;100.00;99535.97;5022842;28;20040;-72
2022/11/18 01:25:01;;;;;;;0.10;0.10;;;;;;;7.30;100.00;99528.53;5023745;28;20115;-73
2022/11/18 01:27:26;;;;;;;0.10;0.10;;;;;;;7.31;100.00;99539.09;5021035;28;20029;-72
2022/11/18 01:29:52;;;;;;;0.10;0.10;;;;;;;7.49;100.00;99557.19;5020397;28;20044;-72
2022/11/18 01:32:17;;;;;;;0.10;0.10;;;;;;;7.42;100.00;99546.19;5007067;28;20071;-72
2022/11/18 01:34:42;;;;;;;0.10;0.10;;;;;;;7.32;100.00;99543.47;5021362;28;20057;-72
2022/11/18 01:37:07;;;;;;;0.10;0.10;;;;;;;7.44;100.00;99557.59;5021926;28;20041;-72
2022/11/18 01:39:33;;;;;;;0.10;0.10;;;;;;;7.48;100.00;99567.03;5020828;28;20025;-72
2022/11/18 01:41:58;;;;;;;0.10;0.10;;;;;;;7.44;100.00;99552.25;5020998;28;20475;-72
2022/11/18 01:44:55;;;;;;;0.10;0.10;;;;;;;7.63;100.00;99575.56;5019723;28;20112;-72
2022/11/18 01:47:20;;;;;;;0.10;0.10;;;;;;;7.67;100.00;99575.31;5022977;28;20029;-72
2022/11/18 01:49:45;;;;;;;0.10;0.10;;;;;;;7.63;100.00;99564.03;5019598;28;20138;-72
2022/11/18 01:52:11;;;;;;;0.10;0.10;;;;;;;7.76;100.00;99574.50;5021719;28;20498;-73
2022/11/18 01:54:40;;;;;;;0.10;0.10;;;;;;;7.75;100.00;99575.47;5024011;28;20120;-72
2022/11/18 01:57:12;;;;;;;0.10;0.10;;;;;;;7.65;100.00;99556.72;5006914;28;20037;-72
2022/11/18 01:59:40;;;;;;;0.10;0.10;;;;;;;7.84;100.00;99579.16;5006134;28;20032;-72
2022/11/18 02:02:10;;;;;;;0.10;0.10;;;;;;;7.82;100.00;99584.66;5020176;28;20076;-72
2022/11/18 02:04:38;;;;;;;0.10;0.10;;;;;;;7.81;100.00;99575.78;4998470;28;20090;-72
2022/11/18 02:07:03;;;;;;;0.10;0.10;;;;;;;7.77;100.00;99582.41;5007342;28;20052;-72
2022/11/18 02:09:29;;;;;;;0.10;0.10;;;;;;;7.92;100.00;99590.06;5004315;28;20491;-72
2022/11/18 02:11:54;;;;;;;0.10;0.10;;;;;;;7.92;100.00;99588.25;5003419;28;20048;-72
2022/11/18 02:14:26;;;;;;;0.10;0.10;;;;;;;7.71;100.00;99588.25;5014344;28;20026;-72
2022/11/18 02:17:30;;;;;;;0.10;0.10;;;;;;;7.79;100.00;99599.16;5006156;28;20426;-72
2022/11/18 02:20:08;;;;;;;0.10;0.10;;;;;;;7.77;100.00;99598.44;5020403;28;20034;-72
2022/11/18 02:22:39;;;;;;;0.10;0.10;;;;;;;7.81;100.00;99601.66;5017926;28;20033;-72
2022/11/18 02:25:22;;;;;;;0.10;0.10;;;;;;;7.73;100.00;99613.03;5019594;28;20391;-72
2022/11/18 02:28:01;;;;;;;0.10;0.10;;;;;;;7.79;100.00;99606.31;5020333;28;20036;-72
2022/11/18 02:30:28;;;;;;;0.10;0.10;;;;;;;7.91;100.00;99623.97;5020407;28;20091;-72
2022/11/18 02:33:04;;;;;;;0.10;0.10;;;;;;;7.81;100.00;99604.34;5015847;28;20037;-73
2022/11/18 02:35:46;;;;;;;0.10;0.10;;;;;;;7.87;100.00;99595.81;5024838;28;20037;-72
2022/11/18 02:38:36;;;;;;;0.10;0.10;;;;;;;7.96;100.00;99616.38;5005480;28;20113;-72
2022/11/18 02:41:07;;;;;;;0.10;0.10;;;;;;;7.93;100.00;99622.00;5000019;28;20125;-72
2022/11/18 02:43:37;;;;;;;0.10;0.10;;;;;;;7.74;100.00;99598.69;5019547;28;20031;-73
2022/11/18 02:46:07;;;;;;;0.00;0.00;;;;;;;7.76;100.00;99620.78;5010871;28;20025;-72
2022/11/18 02:48:34;;;;;;;0.10;0.10;;;;;;;8.01;100.00;99609.78;5011260;28;20124;-73
2022/11/18 02:51:00;;;;;;;0.10;0.10;;;;;;;7.88;100.00;99626.03;5024730;28;20092;-72
2022/11/18 02:53:27;;;;;;;0.10;0.10;;;;;;;7.88;100.00;99628.72;5009151;28;20201;-72
2022/11/18 02:55:54;;;;;;;0.10;0.10;;;;;;;7.82;100.00;99608.72;5016134;28;20070;-72
2022/11/18 02:58:20;;;;;;;0.10;0.10;;;;;;;7.94;100.00;99614.81;5019428;28;20030;-72
2022/11/18 03:00:52;;;;;;;0.10;0.10;;;;;;;7.87;100.00;99609.16;5023287;28;20034;-72
2022/11/18 03:03:35;;;;;;;0.10;0.10;;;;;;;8.00;100.00;99630.34;5039479;28;20503;-73
2022/11/18 03:06:18;;;;;;;0.10;0.10;;;;;;;8.00;100.00;99632.16;5013899;28;20094;-73
2022/11/18 03:09:08;;;;;;;0.10;0.10;;;;;;;7.99;100.00;99633.13;5009201;28;20431;-73
2022/11/18 03:11:59;;;;;;;0.10;0.10;;;;;;;7.98;100.00;99634.97;5032351;28;20029;-73
2022/11/18 03:14:36;;;;;;;0.10;0.10;;;;;;;8.14;100.00;99642.50;5024920;28;20014;-72
2022/11/18 03:17:07;;;;;;;0.10;0.10;;;;;;;8.02;100.00;99639.06;5026617;28;20044;-72
2022/11/18 03:19:55;;;;;;;0.00;0.00;;;;;;;8.10;100.00;99643.75;5023157;28;20021;-72
2022/11/18 03:22:26;;;;;;;0.08;0.08;;;;;;;7.73;100.00;99622.84;5003827;28;20037;-72
2022/11/18 03:25:00;;;;;;;0.10;0.10;;;;;;;8.02;100.00;99648.91;5022838;28;20029;-73
2022/11/18 03:27:30;;;;;;;0.10;0.10;;;;;;;8.16;100.00;99650.38;5013360;28;20033;-73
2022/11/18 03:30:05;;;;;;;0.10;0.10;;;;;;;8.07;100.00;99655.56;5022625;28;20029;-72
2022/11/18 03:32:34;;;;;;;0.10;0.10;;;;;;;7.93;100.00;99655.88;5020857;28;20055;-72
2022/11/18 03:35:07;;;;;;;0.10;0.10;;;;;;;7.84;100.00;99648.66;5021666;28;20091;-72
2022/11/18 03:37:33;;;;;;;0.10;0.10;;;;;;;7.98;100.00;99671.53;5029259;28;20033;-72
2022/11/18 03:40:03;;;;;;;0.10;0.10;;;;;;;7.94;100.00;99653.09;5010165;28;20621;-72
2022/11/18 03:42:34;;;;;;;0.10;0.10;;;;;;;8.07;100.00;99673.41;5017285;28;20044;-72
2022/11/18 03:45:06;;;;;;;0.10;0.10;;;;;;;8.08;100.00;99670.59;5024125;28;20029;-72
2022/11/18 03:47:34;;;;;;;0.10;0.10;;;;;;;8.02;100.00;99680.97;5028510;28;20060;-72
2022/11/18 03:50:08;;;;;;;0.10;0.10;;;;;;;8.04;100.00;99687.03;5011065;28;20033;-72
2022/11/18 03:52:35;;;;;;;0.10;0.10;;;;;;;8.08;100.00;99683.13;5023413;28;20460;-72
2022/11/18 03:55:06;;;;;;;0.10;0.10;;;;;;;8.06;100.00;99691.31;5020197;28;20037;-73
2022/11/18 03:57:38;;;;;;;0.10;0.10;;;;;;;8.09;100.00;99688.34;5022705;28;20037;-72
2022/11/18 04:00:08;;;;;;;0.00;0.00;;;;;;;7.91;100.00;99688.09;5024948;28;20044;-72
2022/11/18 04:02:33;;;;;;;0.00;0.00;;;;;;;8.04;100.00;99701.28;5025628;28;20036;-72
2022/11/18 04:05:00;;;;;;;0.10;0.10;;;;;;;8.20;100.00;99697.28;5009216;28;20033;-73
2022/11/18 04:07:55;;;;;;;0.10;0.10;;;;;;;8.09;100.00;99699.03;5027672;28;20148;-72
2022/11/18 04:10:30;;;;;;;0.10;0.10;;;;;;;7.83;100.00;99709.28;5019214;28;20052;-71
2022/11/18 04:13:03;;;;;;;0.10;0.10;;;;;;;7.85;100.00;99693.09;5011569;28;20061;-73
2022/11/18 04:15:31;;;;;;;0.10;0.10;;;;;;;7.90;100.00;99699.78;5020629;28;20233;-73
2022/11/18 04:17:56;;;;;;;0.10;0.10;;;;;;;7.93;100.00;99694.16;5024496;28;20561;-73
2022/11/18 04:20:22;;;;;;;0.10;0.10;;;;;;;7.75;100.00;99696.56;5025375;28;20177;-73
2022/11/18 04:22:47;;;;;;;0.10;0.10;;;;;;;7.72;100.00;99717.34;5027392;28;20053;-73
2022/11/18 04:25:13;;;;;;;0.10;0.10;;;;;;;7.46;100.00;99699.00;5027835;28;20068;-73
2022/11/18 04:27:39;;;;;;;0.10;0.10;;;;;;;7.65;100.00;99717.88;5010925;28;20116;-73
2022/11/18 04:30:05;;;;;;;0.10;0.10;;;;;;;7.63;100.00;99733.19;5020549;28;20029;-72
2022/11/18 04:32:30;;;;;;;0.10;0.10;;;;;;;7.51;100.00;99728.84;5007695;28;20483;-72
2022/11/18 04:34:56;;;;;;;0.10;0.10;;;;;;;7.51;100.00;99731.53;5021380;28;20036;-72
2022/11/18 04:37:21;;;;;;;0.00;0.00;;;;;;;7.47;100.00;99728.25;5026444;28;20100;-73
2022/11/18 04:39:46;;;;;;;0.10;0.10;;;;;;;7.48;100.00;99732.63;5015187;28;20053;-72
2022/11/18 04:42:12;;;;;;;0.10;0.10;;;;;;;7.34;100.00;99727.56;5014539;28;20033;-72
2022/11/18 04:44:37;;;;;;;0.10;0.10;;;;;;;7.27;100.00;99731.72;5024460;28;20036;-72
2022/11/18 04:47:04;;;;;;;0.10;0.10;;;;;;;7.40;100.00;99732.41;5033073;28;20566;-72
2022/11/18 04:49:30;;;;;;;0.10;0.10;;;;;;;7.49;100.00;99754.84;5024227;28;20479;-72
2022/11/18 04:51:56;;;;;;;0.10;0.10;;;;;;;7.20;100.00;99736.69;5025256;28;20032;-72
2022/11/18 04:54:22;;;;;;;0.10;0.10;;;;;;;7.32;100.00;99756.22;5029052;28;20479;-72
2022/11/18 04:56:48;;;;;;;0.10;0.10;;;;;;;7.17;100.00;99753.81;5021634;28;20494;-72
2022/11/18 04:59:14;;;;;;;0.10;0.10;;;;;;;7.34;100.00;99770.28;5021694;28;20021;-72
2022/11/18 05:01:39;;;;;;;0.17;0.17;;;;;;;7.22;100.00;99761.47;5022105;28;20451;-72
2022/11/18 05:04:06;;;;;;;0.10;0.10;;;;;;;7.30;100.00;99767.03;5022409;28;20500;-72
2022/11/18 05:06:32;;;;;;;0.10;0.10;;;;;;;7.54;100.00;99775.84;5023739;28;20060;-72
2022/11/18 05:08:59;;;;;;;0.10;0.10;;;;;;;7.68;100.00;99774.72;5021757;28;20061;-72
2022/11/18 05:14:10;;;;;;;0.10;0.10;;;;;;;7.81;100.00;99778.88;5023632;28;20099;-72
2022/11/18 05:16:35;;;;;;;0.10;0.10;;;;;;;7.61;100.00;99759.19;5020257;28;20503;-72
2022/11/18 05:19:01;;;;;;;0.10;0.10;;;;;;;7.48;100.00;99770.03;5022280;28;20288;-73
2022/11/18 05:21:27;;;;;;;0.10;0.10;;;;;;;7.52;100.00;99791.16;5023434;28;20055;-72
2022/11/18 05:23:52;;;;;;;0.10;0.10;;;;;;;7.67;100.00;99789.88;5019237;28;20452;-72
2022/11/18 05:26:17;;;;;;;0.00;0.00;;;;;;;7.62;100.00;99800.94;5026182;28;20337;-72
2022/11/18 05:28:43;;;;;;;0.10;0.10;;;;;;;7.54;100.00;99795.38;5023309;28;20523;-73
2022/11/18 05:31:10;;;;;;;0.10;0.10;;;;;;;7.59;100.00;99801.19;5023800;28;20041;-72
2022/11/18 05:33:35;;;;;;;0.10;0.10;;;;;;;7.55;100.00;99783.72;5025060;28;20037;-72
2022/11/18 05:36:05;;;;;;;0.10;0.10;;;;;;;7.48;100.00;99803.88;5025770;28;20361;-72
2022/11/18 05:38:31;;;;;;;0.10;0.10;;;;;;;7.41;100.00;99789.34;5023327;28;20049;-71
2022/11/18 05:40:57;;;;;;;0.10;0.10;;;;;;;7.34;100.00;99797.00;5026536;28;20042;-72
2022/11/18 05:43:22;;;;;;;0.10;0.10;;;;;;;7.37;100.00;99812.78;5026760;28;20029;-72
2022/11/18 05:45:49;;;;;;;0.10;0.10;;;;;;;7.42;100.00;99812.38;5029217;28;20033;-72
2022/11/18 05:48:14;;;;;;;0.10;0.10;;;;;;;7.15;100.00;99814.50;5034170;28;20090;-72
2022/11/18 05:50:40;;;;;;;0.10;0.10;;;;;;;7.08;100.00;99815.13;5023802;28;20076;-72
2022/11/18 05:53:05;;;;;;;0.10;0.10;;;;;;;6.99;100.00;99788.19;5024072;28;20030;-72
2022/11/18 05:55:54;;;;;;;0.10;0.10;;;;;;;7.09;100.00;99806.97;5006277;28;20025;-72
2022/11/18 05:58:19;;;;;;;0.10;0.10;;;;;;;6.77;100.00;99820.19;5019760;28;20045;-72
2022/11/18 06:00:46;;;;;;;0.10;0.10;;;;;;;6.81;100.00;99830.50;5021979;28;20459;-72
2022/11/18 06:03:17;;;;;;;0.10;0.10;;;;;;;6.49;100.00;99833.00;5005253;28;20029;-72
2022/11/18 06:05:42;;;;;;;0.10;0.10;;;;;;;6.52;100.00;99832.78;5025303;28;20029;-72
2022/11/18 06:08:09;;;;;;;0.10;0.10;;;;;;;6.23;100.00;99790.53;5015639;28;20029;-72
2022/11/18 06:10:35;;;;;;;0.10;0.10;;;;;;;6.38;100.00;99841.84;5020886;28;20025;-72
2022/11/18 06:13:04;;;;;;;0.10;0.10;;;;;;;6.28;100.00;99847.84;5019017;28;20047;-72
2022/11/18 06:15:34;;;;;;;0.10;0.10;;;;;;;6.07;100.00;99830.81;5021627;28;20059;-72
2022/11/18 06:18:26;;;;;;;0.10;0.10;;;;;;;6.04;100.00;99857.69;5018720;28;20032;-72
2022/11/18 06:20:55;;;;;;;0.10;0.10;;;;;;;6.06;100.00;99851.31;5014174;28;20049;-72
2022/11/18 06:23:21;;;;;;;0.10;0.10;;;;;;;5.94;100.00;99847.72;5016469;28;20042;-72
2022/11/18 06:25:47;;;;;;;0.10;0.10;;;;;;;6.21;100.00;99856.44;5023196;28;20033;-72
2022/11/18 06:28:14;;;;;;;0.10;0.10;;;;;;;6.09;100.00;99864.38;5021235;28;20056;-72
2022/11/18 06:30:39;;;;;;;0.10;0.10;;;;;;;6.25;100.00;99865.91;5023855;28;20037;-72
2022/11/18 06:33:05;;;;;;;0.10;0.10;;;;;;;6.20;100.00;99870.72;5020746;28;20583;-72
2022/11/18 06:35:30;;;;;;;0.10;0.10;;;;;;;6.18;100.00;99851.34;5022946;28;20127;-72
2022/11/18 06:37:55;;;;;;;0.10;0.10;;;;;;;6.17;100.00;99879.81;5022024;28;20033;-71
2022/11/18 06:40:21;;;;;;;0.10;0.10;;;;;;;5.99;100.00;99879.34;5010437;28;20045;-72
2022/11/18 06:45:30;;;;;;;0.13;0.13;;;;;;;5.61;100.00;99864.34;5027210;28;20044;-72
2022/11/18 06:47:56;;;;;;;0.10;0.10;;;;;;;5.61;100.00;99885.66;5015877;28;20026;-71
2022/11/18 06:50:22;;;;;;;0.10;0.10;;;;;;;5.80;100.00;99887.81;5018870;28;20025;-73
2022/11/18 06:52:47;;;;;;;0.10;0.10;;;;;;;5.80;100.00;99878.03;5005319;28;20056;-72
2022/11/18 06:55:12;;;;;;;0.10;0.10;;;;;;;5.84;100.00;99897.31;5008970;28;20044;-71
2022/11/18 06:57:38;;;;;;;0.10;0.10;;;;;;;5.96;100.00;99898.22;5031751;28;20033;-73
2022/11/18 07:00:04;;;;;;;0.10;0.10;;;;;;;5.82;100.00;99905.41;5024055;28;20103;-72
2022/11/18 07:02:30;;;;;;;0.10;0.10;;;;;;;5.82;100.00;99905.41;5015356;28;20037;-72
2022/11/18 07:04:56;;;;;;;0.10;0.10;;;;;;;5.92;100.00;99910.06;5009555;28;20048;-72
2022/11/18 07:07:21;;;;;;;0.10;0.10;;;;;;;5.94;100.00;99929.44;5020407;28;20033;-72
2022/11/18 07:09:46;;;;;;;0.10;0.10;;;;;;;5.68;100.00;99925.06;5025189;28;20041;-73
2022/11/18 07:12:12;;;;;;;0.10;0.10;;;;;;;5.69;100.00;99915.25;5025836;28;20087;-72
2022/11/18 07:14:37;;;;;;;0.10;0.10;;;;;;;5.61;100.00;99905.16;5028549;28;20072;-72
2022/11/18 07:17:02;;;;;;;0.10;0.10;;;;;;;5.61;100.00;99925.59;5024294;28;20037;-72
2022/11/18 07:19:28;;;;;;;0.10;0.10;;;;;;;5.62;100.00;99917.50;5024386;28;20462;-72
2022/11/18 07:21:53;;;;;;;0.10;0.10;;;;;;;5.78;100.00;99927.91;5019739;28;20037;-72
2022/11/18 07:24:18;;;;;;;0.10;0.10;;;;;;;5.82;100.00;99929.41;5029951;28;20029;-72
2022/11/18 07:26:44;;;;;;;0.10;0.10;;;;;;;5.99;100.00;99935.28;5024459;28;20032;-72
2022/11/18 07:29:09;;;;;;;0.10;0.10;;;;;;;5.94;100.00;99938.31;5010907;28;20071;-70
2022/11/18 07:31:37;;;;;;;0.15;0.15;;;;;;;5.91;100.00;99940.31;5008037;28;20033;-70
2022/11/18 07:34:03;;;;;;;0.10;0.10;;;;;;;5.86;100.00;99954.00;5025741;28;20033;-72
2022/11/18 07:36:28;;;;;;;0.10;0.10;;;;;;;5.94;100.00;99953.44;5028115;28;20040;-72
2022/11/18 07:38:58;;;;;;;0.10;0.10;;;;;;;6.16;100.00;99968.75;5025639;28;20037;-73
2022/11/18 07:41:28;;;;;;;0.10;0.10;;;;;;;5.95;100.00;99933.81;5023602;28;20502;-73
2022/11/18 07:43:54;;;;;;;0.10;0.10;;;;;;;6.24;100.00;99970.84;5028657;28;20033;-73
2022/11/18 07:46:22;;;;;;;0.10;0.10;;;;;;;6.50;100.00;99984.88;5026641;28;20025;-73
2022/11/18 07:48:50;;;;;;;0.10;0.10;;;;;;;6.60;100.00;99985.09;5007284;28;20053;-72
2022/11/18 07:51:17;;;;;;;0.10;0.10;;;;;;;6.70;100.00;99985.22;5027142;28;20049;-72
2022/11/18 07:53:43;;;;;;;0.10;0.10;;;;;;;6.69;100.00;99962.19;5022059;28;20159;-70
2022/11/18 07:56:09;;;;;;;0.10;0.10;;;;;;;6.64;100.00;99980.34;5023656;28;20053;-73
2022/11/18 07:58:34;;;;;;;0.10;0.10;;;;;;;6.79;100.00;99989.03;5024108;28;20519;-73
2022/11/18 08:01:11;;;;;;;0.10;0.10;;;;;;;6.51;100.00;99978.59;5021644;28;20037;-73
2022/11/18 08:03:37;;;;;;;0.10;0.10;;;;;;;6.65;100.00;99995.41;5017369;28;20029;-72
2022/11/18 08:06:04;;;;;;;0.10;0.10;;;;;;;6.56;100.00;99997.78;5017615;28;20037;-73
2022/11/18 08:08:29;;;;;;;0.10;0.10;;;;;;;6.59;100.00;100012.72;5024943;28;20025;-73
2022/11/18 08:10:56;;;;;;;0.10;0.10;;;;;;;6.55;100.00;100013.91;5014518;28;20033;-74
2022/11/18 08:13:21;;;;;;;0.10;0.10;;;;;;;6.64;100.00;100020.38;5016388;28;20076;-74
2022/11/18 08:15:47;;;;;;;0.10;0.10;;;;;;;6.57;100.00;100020.81;5018940;28;20033;-73
2022/11/18 08:18:12;;;;;;;0.10;0.10;;;;;;;6.62;100.00;100011.63;5033591;28;20033;-72
2022/11/18 08:20:37;;;;;;;0.10;0.10;;;;;;;6.55;100.00;100027.25;5020459;28;20802;-72
2022/11/18 08:23:03;;;;;;;0.10;0.10;;;;;;;6.74;100.00;100027.56;5021981;28;20041;-72
2022/11/18 08:25:28;;;;;;;0.10;0.10;;;;;;;6.64;100.00;100028.38;5037874;28;20037;-72
2022/11/18 08:27:54;;;;;;;0.10;0.10;;;;;;;6.75;100.00;100026.59;5031589;28;20026;-72
2022/11/18 08:30:19;;;;;;;0.10;0.10;;;;;;;6.75;100.00;100037.28;5019070;28;20079;-73
2022/11/18 08:32:44;;;;;;;0.10;0.10;;;;;;;6.72;100.00;100034.84;5020712;28;20065;-73
2022/11/18 08:35:10;;;;;;;0.15;0.15;;;;;;;6.67;100.00;100042.31;5027966;28;20059;-73
2022/11/18 08:37:35;;;;;;;0.10;0.10;;;;;;;6.55;100.00;100043.25;5029555;28;20747;-73
2022/11/18 08:40:00;;;;;;;0.10;0.10;;;;;;;6.72;100.00;100045.50;5021681;28;20061;-74
2022/11/18 08:42:26;;;;;;;0.10;0.10;;;;;;;6.64;100.00;100037.22;5016126;28;20143;-74
2022/11/18 08:44:51;;;;;;;0.10;0.10;;;;;;;6.66;100.00;100040.63;5023534;28;20025;-73
2022/11/18 08:47:16;;;;;;;0.10;0.10;;;;;;;6.65;100.00;100040.75;5026034;28;20464;-73
2022/11/18 08:49:42;;;;;;;0.10;0.10;;;;;;;6.79;100.00;100039.72;5030661;28;20065;-72
2022/11/18 08:52:08;;;;;;;0.10;0.10;;;;;;;6.60;100.00;100049.94;5024224;28;20037;-73
2022/11/18 08:54:33;;;;;;;0.10;0.10;;;;;;;6.61;100.00;100042.78;5022713;28;20496;-74
2022/11/18 08:56:59;;;;;;;0.10;0.10;;;;;;;6.75;100.00;100047.94;5012569;28;21019;-73
2022/11/18 08:59:24;;;;;;;0.10;0.10;;;;;;;6.71;100.00;100050.97;5018320;28;20052;-75
2022/11/18 09:01:52;;;;;;;0.10;0.10;;;;;;;6.69;100.00;100051.06;5014718;28;20092;-74
2022/11/18 09:04:18;;;;;;;0.10;0.10;;;;;;;6.74;100.00;100054.25;5011133;28;20033;-75
2022/11/18 09:06:43;;;;;;;0.10;0.10;;;;;;;7.01;100.00;100063.81;5015648;28;20620;-75
2022/11/18 09:09:09;;;;;;;0.10;0.10;;;;;;;7.24;100.00;100066.56;5018773;28;20104;-74
2022/11/18 09:11:34;;;;;;;0.10;0.10;;;;;;;7.48;100.00;100066.50;5031031;28;20029;-74
2022/11/18 09:14:00;;;;;;;0.20;0.20;;;;;;;7.47;100.00;100069.28;5007611;28;20500;-75
2022/11/18 09:16:27;;;;;;;0.10;0.10;;;;;;;7.52;100.00;100067.09;5002937;28;20072;-75
2022/11/18 09:18:54;;;;;;;0.10;0.10;;;;;;;7.68;100.00;100077.47;5015204;28;20065;-75
2022/11/18 09:21:19;;;;;;;0.10;0.10;;;;;;;8.21;100.00;100076.00;5008565;28;20045;-74
2022/11/18 09:23:44;;;;;;;0.17;0.17;;;;;;;8.18;100.00;100073.56;5015867;28;20286;-74
2022/11/18 09:26:12;;;;;;;0.10;0.10;;;;;;;8.39;100.00;100084.38;5017235;28;20112;-75
2022/11/18 09:28:37;;;;;;;0.10;0.10;;;;;;;8.74;100.00;100080.66;5004460;28;20033;-75
2022/11/18 09:31:04;;;;;;;0.20;0.20;;;;;;;8.67;100.00;100087.50;5019962;28;20033;-75
2022/11/18 09:33:30;;;;;;;0.20;0.20;;;;;;;8.91;100.00;100091.81;5010900;28;20026;-75
2022/11/18 09:35:55;;;;;;;0.10;0.10;;;;;;;8.99;100.00;100095.56;5010740;28;20037;-76
2022/11/18 09:38:20;;;;;;;0.10;0.10;;;;;;;9.20;100.00;100089.38;5019737;28;20032;-75
2022/11/18 09:40:55;;;;;;;0.10;0.10;;;;;;;9.53;100.00;100108.09;5012407;28;20021;-75
2022/11/18 09:43:51;;;;;;;0.10;0.10;;;;;;;9.50;100.00;100105.69;5009731;28;20510;-74
2022/11/18 09:46:21;;;;;;;0.10;0.10;;;;;;;9.37;100.00;100109.38;4981575;28;20480;-75
2022/11/18 09:51:39;;;;;;;0.10;0.10;;;;;;;8.84;100.00;100111.06;5032272;28;20144;-74
2022/11/18 09:54:06;;;;;;;0.10;0.10;;;;;;;8.58;100.00;100104.31;5020947;28;20648;-74
2022/11/18 09:56:31;;;;;;;0.10;0.10;;;;;;;8.69;100.00;100115.84;5002406;28;20491;-74
2022/11/18 09:58:56;;;;;;;0.10;0.10;;;;;;;8.55;100.00;100100.91;5021188;28;20045;-74
2022/11/18 10:01:22;;;;;;;0.10;0.10;;;;;;;8.65;100.00;100118.91;4996329;28;20129;-75
2022/11/18 10:03:48;;;;;;;0.20;0.20;;;;;;;8.69;100.00;100097.09;5013389;28;20044;-75
2022/11/18 10:06:21;;;;;;;0.20;0.20;;;;;;;9.71;100.00;100119.91;5015699;28;20033;-75
2022/11/18 10:09:12;;;;;;;0.20;0.20;;;;;;;10.16;100.00;100129.47;5015406;28;20472;-76
2022/11/18 10:12:12;;;;;;;0.10;0.10;;;;;;;9.87;100.00;100137.34;5014670;28;20034;-75
2022/11/18 10:14:47;;;;;;;0.10;0.10;;;;;;;10.33;100.00;100141.38;5011437;28;20087;-75
2022/11/18 10:17:38;;;;;;;0.13;0.13;;;;;;;10.61;100.00;100138.13;5013381;28;20032;-75
2022/11/18 10:20:09;;;;;;;0.10;0.10;;;;;;;11.15;100.00;100148.53;5011644;28;20124;-75
2022/11/18 10:22:57;;;;;;;0.10;0.10;;;;;;;11.38;100.00;100143.75;5011619;28;20041;-75
2022/11/18 10:25:22;;;;;;;0.17;0.17;;;;;;;11.55;100.00;100131.41;5014112;28;20029;-75
2022/11/18 10:27:49;;;;;;;0.10;0.10;;;;;;;11.76;100.00;100144.69;5021362;28;20033;-75
2022/11/18 10:30:16;;;;;;;0.10;0.10;;;;;;;11.75;100.00;100153.75;5019555;28;20492;-75
2022/11/18 10:33:02;;;;;;;0.10;0.10;;;;;;;12.15;100.00;100155.41;5019400;28;20539;-75
2022/11/18 10:35:34;;;;;;;0.10;0.10;;;;;;;12.44;98.86;100165.22;5014199;28;20056;-76
2022/11/18 10:38:06;;;;;;;0.10;0.10;;;;;;;12.71;98.23;100159.97;5001397;28;20104;-75
2022/11/18 10:40:32;;;;;;;0.10;0.10;;;;;;;12.98;94.67;100172.56;5016791;28;20346;-74
2022/11/18 10:42:58;;;;;;;0.10;0.10;;;;;;;13.35;90.95;100170.75;5019294;28;20136;-74
2022/11/18 10:45:26;;;;;;;0.10;0.10;;;;;;;12.61;96.18;100168.09;5014650;28;20559;-76
2022/11/18 10:48:16;;;;;;;0.00;0.00;;;;;;;11.21;100.00;100175.69;5010665;28;20035;-75
2022/11/18 10:50:44;;;;;;;0.00;0.00;;;;;;;10.49;100.00;100177.66;5017531;28;20025;-75
2022/11/18 10:53:30;;;;;;;0.10;0.10;;;;;;;10.43;100.00;100181.72;5012391;28;20037;-74
2022/11/18 10:56:02;;;;;;;0.10;0.10;;;;;;;10.51;100.00;100181.06;5022608;28;20026;-74
2022/11/18 10:58:29;;;;;;;0.10;0.10;;;;;;;11.22;100.00;100160.44;5021745;28;20510;-74
2022/11/18 11:01:12;;;;;;;0.10;0.10;;;;;;;11.90;100.00;100186.44;5021148;28;20033;-74
2022/11/18 11:03:37;;;;;;;0.10;0.10;;;;;;;11.02;100.00;100170.31;5023110;28;20029;-75
2022/11/18 11:06:22;;;;;;;0.10;0.10;;;;;;;10.65;100.00;100186.03;5021089;28;20033;-75
2022/11/18 11:08:58;;;;;;;0.10;0.10;;;;;;;11.19;100.00;100184.91;5022332;28;20037;-77
2022/11/18 11:11:45;;;;;;;0.10;0.10;;;;;;;11.05;100.00;100178.09;5026549;28;20041;-76
2022/11/18 11:14:30;;;;;;;0.10;0.10;;;;;;;11.13;100.00;100178.22;5020522;28;20176;-75
2022/11/18 11:17:11;;;;;;;0.10;0.10;;;;;;;11.72;100.00;100185.47;5021066;28;20380;-75
2022/11/18 11:20:14;;;;;;;0.10;0.10;;;;;;;11.82;100.00;100188.97;5009265;28;20025;-75
2022/11/18 11:22:41;;;;;;;0.10;0.10;;;;;;;10.96;100.00;100187.84;5024760;28;20144;-74
2022/11/18 11:25:27;;;;;;;0.10;0.10;;;;;;;10.83;100.00;100163.06;5020771;28;20030;-75
2022/11/18 11:28:00;;;;;;;0.10;0.10;;;;;;;10.82;100.00;100181.00;5023301;28;20040;-76
2022/11/18 11:30:25;;;;;;;0.00;0.00;;;;;;;10.68;100.00;100190.31;5015863;28;20030;-76
2022/11/18 11:33:26;;;;;;;0.10;0.10;;;;;;;10.65;100.00;100194.09;5003125;28;20115;-76
2022/11/18 11:36:11;;;;;;;0.10;0.10;;;;;;;11.05;100.00;100188.84;5019806;28;20025;-75
2022/11/18 11:39:08;;;;;;;0.20;0.20;;;;;;;11.98;100.00;100194.63;5017047;28;20029;-75
2022/11/18 11:42:05;;;;;;;0.10;0.10;;;;;;;11.58;100.00;100176.84;5019708;28;20033;-76
2022/11/18 11:44:49;;;;;;;0.10;0.10;;;;;;;11.19;100.00;100201.03;5023354;28;20727;-75
2022/11/18 11:47:45;;;;;;;0.10;0.10;;;;;;;11.25;100.00;100197.78;5025973;28;20557;-75
2022/11/18 11:50:21;;;;;;;0.00;0.00;;;;;;;11.02;100.00;100197.16;5008316;28;20558;-75
2022/11/18 11:53:08;;;;;;;0.10;0.10;;;;;;;10.76;100.00;100213.78;5007834;28;20487;-75
2022/11/18 11:55:58;;;;;;;0.08;0.08;;;;;;;10.46;100.00;100200.22;5011381;28;20032;-74